Terminal Aerodrome Forecast
Issued by NWS Goodland, KS

Home | Current Version | Previous Version | Text Only | Print | Product List | Glossary On
Versions: 1 2 3 4 5 6 7 8 9 10 11 12 13 14 15 16 17 18
000
FTUS43 KGLD 261720
TAFGLD
TAF
KGLD 261720Z 2618/2718 25004KT P6SM SCT040 SCT200
     FM262100 13010KT P6SM SCT050 SCT200
     FM270500 16011KT P6SM SCT040 WS020/16040KT
     FM271400 18012G22KT P6SM SCT040 SCT150=

USA.gov is the U.S. government's official web portal to all federal, state and local government web resources and services.